createdAt,value
2023-01-12T00:01:59.076Z,48.58
2023-01-12T00:04:26.833Z,48.54
2023-01-12T00:06:54.792Z,48.87
2023-01-12T00:09:22.609Z,48.92
2023-01-12T00:11:50.139Z,48.92
2023-01-12T00:14:17.696Z,48.83
2023-01-12T00:16:45.056Z,48.56
2023-01-12T00:19:21.708Z,48.57
2023-01-12T00:22:02.304Z,48.72
2023-01-12T00:24:36.339Z,48.99
2023-01-12T00:27:09.917Z,48.60
2023-01-12T00:29:37.660Z,48.73
2023-01-12T00:32:06.271Z,48.67
2023-01-12T00:34:34.042Z,48.90
2023-01-12T00:37:01.731Z,48.66
2023-01-12T00:39:29.406Z,48.79
2023-01-12T00:42:15.066Z,48.56
2023-01-12T00:45:01.307Z,48.55
2023-01-12T00:47:28.690Z,48.89
2023-01-12T00:49:56.314Z,49.06
2023-01-12T00:52:31.860Z,48.73
2023-01-12T00:55:00.008Z,48.51
2023-01-12T00:57:28.290Z,48.68
2023-01-12T00:59:59.044Z,48.64
2023-01-12T01:02:27.701Z,48.88
2023-01-12T01:04:56.139Z,48.72
2023-01-12T01:07:23.429Z,48.90
2023-01-12T01:09:51.936Z,48.65
2023-01-12T01:12:19.679Z,48.89
2023-01-12T01:14:48.411Z,48.73
2023-01-12T01:17:16.231Z,49.04
2023-01-12T01:19:43.955Z,48.90
2023-01-12T01:22:13.083Z,48.70
2023-01-12T01:24:41.560Z,48.92
2023-01-12T01:27:09.788Z,48.57
2023-01-12T01:29:37.359Z,48.62
2023-01-12T01:32:05.239Z,48.89
2023-01-12T01:34:33.790Z,48.56
2023-01-12T01:37:01.004Z,48.84
2023-01-12T01:39:28.621Z,48.59
2023-01-12T01:41:55.881Z,48.72
2023-01-12T01:44:29.624Z,48.83
2023-01-12T01:47:01.993Z,48.98
2023-01-12T01:49:38.911Z,48.89
2023-01-12T01:52:13.885Z,48.63
2023-01-12T01:55:07.763Z,49.07
2023-01-12T01:58:07.926Z,48.94
2023-01-12T02:00:38.914Z,48.80
2023-01-12T02:03:08.713Z,49.04
2023-01-12T02:05:37.631Z,48.72
2023-01-12T02:08:21.764Z,48.76
2023-01-12T02:10:52.573Z,48.83
2023-01-12T02:13:38.862Z,48.88
2023-01-12T02:16:21.067Z,48.76
2023-01-12T02:19:13.284Z,48.96
2023-01-12T02:21:46.909Z,48.98
2023-01-12T02:24:40.246Z,48.75
2023-01-12T02:27:22.818Z,48.93
2023-01-12T02:29:59.049Z,48.99
2023-01-12T02:32:30.358Z,49.08
2023-01-12T02:35:27.169Z,48.76
2023-01-12T02:38:12.975Z,48.99
2023-01-12T02:40:48.240Z,49.04
2023-01-12T02:43:27.727Z,48.74
2023-01-12T02:46:22.218Z,48.98
2023-01-12T02:48:55.694Z,48.76
2023-01-12T02:51:27.070Z,49.03
2023-01-12T02:54:01.421Z,49.02
2023-01-12T02:56:36.363Z,49.00
2023-01-12T02:59:12.047Z,48.67
2023-01-12T03:01:41.065Z,49.18
2023-01-12T03:04:10.936Z,49.14
2023-01-12T03:06:48.090Z,48.96
2023-01-12T03:09:17.859Z,48.98
2023-01-12T03:11:48.808Z,48.77
2023-01-12T03:14:17.418Z,48.72
2023-01-12T03:16:44.666Z,48.68
2023-01-12T03:19:19.674Z,48.90
2023-01-12T03:21:53.559Z,49.08
2023-01-12T03:24:45.667Z,49.01
2023-01-12T03:27:18.211Z,48.81
2023-01-12T03:29:59.905Z,48.97
2023-01-12T03:32:27.176Z,49.18
2023-01-12T03:34:54.836Z,49.03
2023-01-12T03:37:33.939Z,49.06
2023-01-12T03:40:06.572Z,48.73
2023-01-12T03:43:03.507Z,48.99
2023-01-12T03:45:53.823Z,48.88
2023-01-12T03:48:46.840Z,48.75
2023-01-12T03:51:20.324Z,48.96
2023-01-12T03:53:49.634Z,49.01
2023-01-12T03:56:20.067Z,49.12
2023-01-12T03:58:49.068Z,48.96
2023-01-12T04:01:17.002Z,49.14
2023-01-12T04:03:44.497Z,49.20
2023-01-12T04:06:12.360Z,49.02
2023-01-12T04:08:39.643Z,49.17
2023-01-12T04:11:26.623Z,48.74
2023-01-12T04:13:53.931Z,49.09
2023-01-12T04:16:21.526Z,48.92
2023-01-12T04:18:48.825Z,48.86
2023-01-12T04:21:34.789Z,48.86
2023-01-12T04:24:02.048Z,49.02
2023-01-12T04:26:29.628Z,49.02
2023-01-12T04:28:56.939Z,48.94
2023-01-12T04:31:24.510Z,48.83
2023-01-12T04:33:51.762Z,48.84
2023-01-12T04:36:19.327Z,49.10
2023-01-12T04:38:46.967Z,49.26
2023-01-12T04:41:14.553Z,48.87
2023-01-12T04:43:47.335Z,49.04
2023-01-12T04:46:15.008Z,49.24
2023-01-12T04:48:46.558Z,49.02
2023-01-12T04:51:14.209Z,49.04
2023-01-12T04:53:42.252Z,49.31
2023-01-12T04:56:09.904Z,48.96
2023-01-12T04:58:37.145Z,49.17
2023-01-12T05:01:16.604Z,49.29
2023-01-12T05:03:44.964Z,49.24
2023-01-12T05:06:12.727Z,48.99
2023-01-12T05:08:58.304Z,48.94
2023-01-12T05:11:29.352Z,48.88
2023-01-12T05:13:57.184Z,48.94
2023-01-12T05:16:25.125Z,49.31
2023-01-12T05:18:53.346Z,49.12
2023-01-12T05:21:22.427Z,49.22
2023-01-12T05:23:51.946Z,49.04
2023-01-12T05:26:19.912Z,48.96
2023-01-12T05:28:51.006Z,49.10
2023-01-12T05:31:19.538Z,49.26
2023-01-12T05:33:48.053Z,49.21
2023-01-12T05:36:17.393Z,49.19
2023-01-12T05:38:44.796Z,49.15
2023-01-12T05:41:15.642Z,49.11
2023-01-12T05:43:52.818Z,49.32
2023-01-12T05:46:25.604Z,48.96
2023-01-12T05:48:54.658Z,48.86
2023-01-12T05:51:25.111Z,49.05
2023-01-12T05:53:52.925Z,49.21
2023-01-12T05:56:25.599Z,48.95
2023-01-12T05:58:55.319Z,49.26
2023-01-12T06:01:23.668Z,48.92
2023-01-12T06:03:53.041Z,49.16
2023-01-12T06:06:22.295Z,49.04
2023-01-12T06:08:52.589Z,49.34
2023-01-12T06:11:39.735Z,48.96
2023-01-12T06:14:08.350Z,49.42
2023-01-12T06:16:41.276Z,49.41
2023-01-12T06:19:12.346Z,49.14
2023-01-12T06:21:40.799Z,49.25
2023-01-12T06:24:08.479Z,49.30
2023-01-12T06:26:36.154Z,49.16
2023-01-12T06:29:05.398Z,49.23
2023-01-12T06:31:33.209Z,49.40
2023-01-12T06:34:00.563Z,49.31
2023-01-12T06:36:28.162Z,49.34
2023-01-12T06:38:55.620Z,49.18
2023-01-12T06:41:41.896Z,49.18
2023-01-12T06:44:09.111Z,49.26
2023-01-12T06:46:37.025Z,48.95
2023-01-12T06:49:04.427Z,49.01
2023-01-12T06:51:32.334Z,48.93
2023-01-12T06:53:59.911Z,49.26
2023-01-12T06:56:27.482Z,49.33
2023-01-12T06:58:54.780Z,49.35
2023-01-12T07:01:22.521Z,49.35
2023-01-12T07:03:49.864Z,49.08
2023-01-12T07:06:17.423Z,49.13
2023-01-12T07:08:44.862Z,49.25
2023-01-12T07:11:14.732Z,49.24
2023-01-12T07:13:42.140Z,49.27
2023-01-12T07:16:09.998Z,49.23
2023-01-12T07:18:37.243Z,49.16
2023-01-12T07:21:06.695Z,49.21
2023-01-12T07:23:34.045Z,49.16
2023-01-12T07:26:01.616Z,49.25
2023-01-12T07:28:31.197Z,49.37
2023-01-12T07:31:04.324Z,49.03
2023-01-12T07:33:34.430Z,48.96
2023-01-12T07:36:02.591Z,49.17
2023-01-12T07:38:31.059Z,49.28
2023-01-12T07:41:02.246Z,49.11
2023-01-12T07:43:30.493Z,49.32
2023-01-12T07:45:59.273Z,49.18
2023-01-12T07:48:27.385Z,49.03
2023-01-12T07:50:55.163Z,48.97
2023-01-12T07:53:22.488Z,49.80
2023-01-12T07:55:50.778Z,50.11
2023-01-12T07:58:18.038Z,50.61
2023-01-12T08:00:45.597Z,50.54
2023-01-12T08:03:14.096Z,51.66
2023-01-12T08:05:41.917Z,50.60
2023-01-12T08:08:09.350Z,50.32
2023-01-12T08:10:37.186Z,49.97
2023-01-12T08:13:05.020Z,49.76
2023-01-12T08:15:38.944Z,49.59
2023-01-12T08:18:20.439Z,49.85
2023-01-12T08:20:48.863Z,49.93
2023-01-12T08:23:20.513Z,50.03
2023-01-12T08:25:56.293Z,49.97
2023-01-12T08:28:31.980Z,50.33
2023-01-12T08:31:00.264Z,50.38
2023-01-12T08:33:27.792Z,50.34
2023-01-12T08:35:55.442Z,50.29
2023-01-12T08:38:22.966Z,50.27
2023-01-12T08:41:09.462Z,50.46
2023-01-12T08:43:55.577Z,50.22
2023-01-12T08:46:23.914Z,50.20
2023-01-12T08:48:51.492Z,50.21
2023-01-12T08:51:19.086Z,50.43
2023-01-12T08:53:47.305Z,50.69
2023-01-12T08:56:15.301Z,50.34
2023-01-12T08:58:43.181Z,50.57
2023-01-12T09:01:13.682Z,50.67
2023-01-12T09:03:41.477Z,50.67
2023-01-12T09:06:19.499Z,50.76
2023-01-12T09:08:47.402Z,50.82
2023-01-12T09:11:15.756Z,50.80
2023-01-12T09:13:43.115Z,50.94
2023-01-12T09:16:13.929Z,51.15
2023-01-12T09:18:41.878Z,51.20
2023-01-12T09:21:11.736Z,51.12
2023-01-12T09:23:39.445Z,51.09
2023-01-12T09:26:13.278Z,51.22
2023-01-12T09:28:41.699Z,51.26
2023-01-12T09:31:16.795Z,51.62
2023-01-12T09:33:45.764Z,51.29
2023-01-12T09:36:14.933Z,51.24
2023-01-12T09:38:44.156Z,51.37
2023-01-12T09:41:57.172Z,51.58
2023-01-12T09:44:50.690Z,51.60
2023-01-12T09:47:53.808Z,51.86
2023-01-12T09:50:33.545Z,51.31
2023-01-12T09:53:07.436Z,51.47
2023-01-12T09:56:02.669Z,52.06
2023-01-12T09:59:07.943Z,51.81
2023-01-12T10:01:36.912Z,52.11
2023-01-12T10:04:05.297Z,52.05
2023-01-12T10:06:33.208Z,52.26
2023-01-12T10:09:07.019Z,52.25
2023-01-12T10:11:47.802Z,52.22
2023-01-12T10:14:49.561Z,52.41
2023-01-12T10:17:50.642Z,52.35
2023-01-12T10:20:29.512Z,52.46
2023-01-12T10:23:09.881Z,52.33
2023-01-12T10:25:45.872Z,52.33
2023-01-12T10:28:24.931Z,52.70
2023-01-12T10:30:56.213Z,52.65
2023-01-12T10:33:32.364Z,52.51
2023-01-12T10:36:19.574Z,52.80
2023-01-12T10:38:59.546Z,52.66
2023-01-12T10:41:28.266Z,52.87
2023-01-12T10:43:58.543Z,52.77
2023-01-12T10:46:29.703Z,52.94
2023-01-12T10:49:18.769Z,52.78
2023-01-12T10:51:59.402Z,53.18
2023-01-12T10:54:33.096Z,53.16
2023-01-12T10:57:16.596Z,52.94
2023-01-12T10:59:53.214Z,53.13
2023-01-12T11:02:22.751Z,52.88
2023-01-12T11:04:54.876Z,52.99
2023-01-12T11:07:31.200Z,52.93
2023-01-12T11:10:37.273Z,53.30
2023-01-12T11:13:05.970Z,52.97
2023-01-12T11:15:38.876Z,53.04
2023-01-12T11:18:32.275Z,53.22
2023-01-12T11:21:05.365Z,53.44
2023-01-12T11:24:06.005Z,53.27
2023-01-12T11:26:43.100Z,53.55
2023-01-12T11:29:31.338Z,53.55
2023-01-12T11:32:06.360Z,53.39
2023-01-12T11:34:41.059Z,53.54
2023-01-12T11:37:12.903Z,53.63
2023-01-12T11:39:49.963Z,53.63
2023-01-12T11:42:43.645Z,53.71
2023-01-12T11:45:32.951Z,53.36
2023-01-12T11:48:08.844Z,53.51
2023-01-12T11:50:39.388Z,53.38
2023-01-12T11:53:20.115Z,53.95
2023-01-12T11:56:01.257Z,53.72
2023-01-12T11:58:58.711Z,53.92
2023-01-12T12:01:43.808Z,53.92
2023-01-12T12:04:29.861Z,54.04
2023-01-12T12:07:00.065Z,53.96
2023-01-12T12:10:06.701Z,54.04
2023-01-12T12:13:00.370Z,54.21
2023-01-12T12:15:39.000Z,54.42
2023-01-12T12:18:24.624Z,54.62
2023-01-12T12:21:00.713Z,54.65
2023-01-12T12:24:12.610Z,54.56
2023-01-12T12:26:45.139Z,54.71
2023-01-12T12:29:57.842Z,54.88
2023-01-12T12:32:47.013Z,54.74
2023-01-12T12:35:23.474Z,55.01
2023-01-12T12:38:15.193Z,54.85
2023-01-12T12:41:10.541Z,55.12
2023-01-12T12:43:56.223Z,55.17
2023-01-12T12:46:59.629Z,55.31
2023-01-12T12:49:29.993Z,55.31
2023-01-12T12:51:59.070Z,55.29
2023-01-12T12:54:27.531Z,55.05
2023-01-12T12:56:55.722Z,55.22
2023-01-12T12:59:32.304Z,55.32
2023-01-12T13:02:02.108Z,55.23
2023-01-12T13:04:53.584Z,55.38
2023-01-12T13:07:22.287Z,55.49
2023-01-12T13:09:50.327Z,55.37
2023-01-12T13:12:22.533Z,55.46
2023-01-12T13:15:21.533Z,55.63
2023-01-12T13:17:52.711Z,55.41
2023-01-12T13:20:25.682Z,55.34
2023-01-12T13:22:53.853Z,55.41
2023-01-12T13:25:22.222Z,55.48
2023-01-12T13:27:56.746Z,55.33
2023-01-12T13:30:26.912Z,55.26
2023-01-12T13:33:23.375Z,55.32
2023-01-12T13:35:50.758Z,55.16
2023-01-12T13:38:23.756Z,55.48
2023-01-12T13:40:55.732Z,55.34
2023-01-12T13:43:30.148Z,55.33
2023-01-12T13:46:12.814Z,55.27
2023-01-12T13:48:44.620Z,55.22
2023-01-12T13:51:35.069Z,55.22
2023-01-12T13:54:05.783Z,54.98
2023-01-12T13:56:33.466Z,55.06
2023-01-12T13:59:04.050Z,55.19
2023-01-12T14:01:37.700Z,55.23
2023-01-12T14:04:21.589Z,55.34
2023-01-12T14:07:14.040Z,55.25
2023-01-12T14:09:51.035Z,55.10
2023-01-12T14:12:30.594Z,55.06
2023-01-12T14:15:29.727Z,55.05
2023-01-12T14:18:15.159Z,55.17
2023-01-12T14:20:42.638Z,54.92
2023-01-12T14:23:17.359Z,54.92
2023-01-12T14:25:46.777Z,55.08
2023-01-12T14:28:19.474Z,55.30
2023-01-12T14:30:52.755Z,55.03
2023-01-12T14:33:31.921Z,54.97
2023-01-12T14:36:06.624Z,55.09
2023-01-12T14:38:35.086Z,54.98
2023-01-12T14:41:27.083Z,55.01
2023-01-12T14:44:18.250Z,54.98
2023-01-12T14:46:53.874Z,55.00
2023-01-12T14:49:33.089Z,55.04
2023-01-12T14:52:29.744Z,55.19
2023-01-12T14:55:19.256Z,55.09
2023-01-12T14:57:50.607Z,55.03
2023-01-12T15:00:27.548Z,55.33
2023-01-12T15:02:57.475Z,55.03
2023-01-12T15:05:27.526Z,55.25
2023-01-12T15:08:01.754Z,55.24
2023-01-12T15:10:36.145Z,55.09
2023-01-12T15:13:27.348Z,55.12
2023-01-12T15:16:15.114Z,55.31
2023-01-12T15:19:01.573Z,55.23
2023-01-12T15:21:48.458Z,55.43
2023-01-12T15:24:44.174Z,55.19
2023-01-12T15:27:13.979Z,55.59
2023-01-12T15:29:41.828Z,55.55
2023-01-12T15:32:23.805Z,55.30
2023-01-12T15:34:52.987Z,55.56
2023-01-12T15:37:20.708Z,55.55
2023-01-12T15:39:48.306Z,55.46
2023-01-12T15:42:18.054Z,55.59
2023-01-12T15:44:47.030Z,55.41
2023-01-12T15:47:15.686Z,55.45
2023-01-12T15:49:47.663Z,55.43
2023-01-12T15:52:21.720Z,55.42
2023-01-12T15:54:49.574Z,55.52
2023-01-12T15:57:17.496Z,55.49
2023-01-12T15:59:45.059Z,55.56
2023-01-12T16:02:29.796Z,55.48
2023-01-12T16:04:57.415Z,55.71
2023-01-12T16:07:25.000Z,55.74
2023-01-12T16:09:54.384Z,55.64
2023-01-12T16:12:22.688Z,55.65
2023-01-12T16:14:50.947Z,55.48
2023-01-12T16:17:18.767Z,55.58
2023-01-12T16:19:46.385Z,55.49
2023-01-12T16:22:21.076Z,55.44
2023-01-12T16:24:49.426Z,55.64
2023-01-12T16:27:17.948Z,55.56
2023-01-12T16:29:46.095Z,55.71
2023-01-12T16:32:13.551Z,55.64
2023-01-12T16:34:41.400Z,55.41
2023-01-12T16:37:15.822Z,55.50
2023-01-12T16:39:43.572Z,55.47
2023-01-12T16:42:11.724Z,55.65
2023-01-12T16:44:40.161Z,55.47
2023-01-12T16:47:13.847Z,55.47
2023-01-12T16:49:42.168Z,55.58
2023-01-12T16:52:14.264Z,55.72
2023-01-12T16:54:42.733Z,55.44
2023-01-12T16:57:12.581Z,55.72
2023-01-12T16:59:41.109Z,55.67
2023-01-12T17:02:12.606Z,55.78
2023-01-12T17:04:42.261Z,55.64
2023-01-12T17:07:10.333Z,55.73
2023-01-12T17:09:39.677Z,55.43
2023-01-12T17:12:08.188Z,55.74
2023-01-12T17:14:36.395Z,55.47
2023-01-12T17:17:07.669Z,55.42
2023-01-12T17:19:38.253Z,55.33
2023-01-12T17:22:08.020Z,55.37
2023-01-12T17:24:39.629Z,55.75
2023-01-12T17:27:09.326Z,55.41
2023-01-12T17:29:37.421Z,55.40
2023-01-12T17:32:06.767Z,55.37
2023-01-12T17:34:40.786Z,55.46
2023-01-12T17:37:09.922Z,55.41
2023-01-12T17:39:46.004Z,55.58
2023-01-12T17:42:37.000Z,55.38
2023-01-12T17:48:19.645Z,55.32
2023-01-12T17:50:47.411Z,55.53
2023-01-12T17:53:17.239Z,55.45
2023-01-12T17:55:48.790Z,55.23
2023-01-12T17:58:18.593Z,55.31
2023-01-12T18:03:35.438Z,55.27
2023-01-12T18:06:09.047Z,55.33
2023-01-12T18:08:39.268Z,55.48
2023-01-12T18:11:08.769Z,55.27
2023-01-12T18:13:36.420Z,55.37
2023-01-12T18:16:04.560Z,55.22
2023-01-12T18:18:32.109Z,55.43
2023-01-12T18:21:04.834Z,55.47
2023-01-12T18:23:32.475Z,55.21
2023-01-12T18:26:08.489Z,55.38
2023-01-12T18:28:35.792Z,55.12
2023-01-12T18:31:05.536Z,55.19
2023-01-12T18:33:33.041Z,55.37
2023-01-12T18:36:01.238Z,55.39
2023-01-12T18:38:29.998Z,55.14
2023-01-12T18:41:20.622Z,55.06
2023-01-12T18:43:51.792Z,55.31
2023-01-12T18:46:20.146Z,55.11
2023-01-12T18:48:48.072Z,55.07
2023-01-12T18:51:34.188Z,54.98
2023-01-12T18:54:02.101Z,54.98
2023-01-12T18:56:29.695Z,55.27
2023-01-12T18:58:57.034Z,55.20
2023-01-12T19:01:26.242Z,55.23
2023-01-12T19:03:53.881Z,55.24
2023-01-12T19:06:43.604Z,55.27
2023-01-12T19:09:32.775Z,54.96
2023-01-12T19:12:01.594Z,54.85
2023-01-12T19:14:47.521Z,54.98
2023-01-12T19:17:27.668Z,54.96
2023-01-12T19:20:00.204Z,55.04
2023-01-12T19:22:46.683Z,54.95
2023-01-12T19:25:34.832Z,54.69
2023-01-12T19:28:21.488Z,54.92
2023-01-12T19:30:48.975Z,54.81
2023-01-12T19:33:17.403Z,54.66
2023-01-12T19:35:46.518Z,54.95
2023-01-12T19:38:15.679Z,54.95
2023-01-12T19:40:54.473Z,54.91
2023-01-12T19:43:26.285Z,54.98
2023-01-12T19:46:01.179Z,54.91
2023-01-12T19:48:30.457Z,54.75
2023-01-12T19:51:05.093Z,54.71
2023-01-12T19:53:33.278Z,54.83
2023-01-12T19:56:01.021Z,54.88
2023-01-12T19:58:28.737Z,54.71
2023-01-12T20:00:59.101Z,54.60
2023-01-12T20:03:26.744Z,54.82
2023-01-12T20:05:54.182Z,54.75
2023-01-12T20:08:24.647Z,54.71
2023-01-12T20:10:57.955Z,54.52
2023-01-12T20:13:26.924Z,54.76
2023-01-12T20:15:56.743Z,54.54
2023-01-12T20:18:24.758Z,54.52
2023-01-12T20:20:53.367Z,54.58
2023-01-12T20:23:21.118Z,54.54
2023-01-12T20:25:48.675Z,54.44
2023-01-12T20:28:16.369Z,54.49
2023-01-12T20:30:44.795Z,54.32
2023-01-12T20:33:13.239Z,54.30
2023-01-12T20:35:45.461Z,54.19
2023-01-12T20:38:15.796Z,54.22
2023-01-12T20:40:44.952Z,54.43
2023-01-12T20:43:12.905Z,54.05
2023-01-12T20:45:41.686Z,54.11
2023-01-12T20:48:12.572Z,54.25
2023-01-12T20:50:45.732Z,54.05
2023-01-12T20:53:15.024Z,54.19
2023-01-12T20:55:43.681Z,54.16
2023-01-12T20:58:13.510Z,54.19
2023-01-12T21:00:41.783Z,54.12
2023-01-12T21:03:10.688Z,54.27
2023-01-12T21:05:42.886Z,54.04
2023-01-12T21:08:11.762Z,54.20
2023-01-12T21:10:40.503Z,54.08
2023-01-12T21:13:08.208Z,54.33
2023-01-12T21:15:35.821Z,54.27
2023-01-12T21:18:03.675Z,54.02
2023-01-12T21:20:31.270Z,54.22
2023-01-12T21:23:00.075Z,54.27
2023-01-12T21:25:29.012Z,54.14
2023-01-12T21:27:57.885Z,54.14
2023-01-12T21:30:25.203Z,54.16
2023-01-12T21:32:55.058Z,54.20
2023-01-12T21:35:24.042Z,54.13
2023-01-12T21:37:52.298Z,54.10
2023-01-12T21:40:20.775Z,54.11
2023-01-12T21:43:07.481Z,54.06
2023-01-12T21:45:43.288Z,54.19
2023-01-12T21:48:11.984Z,54.03
2023-01-12T21:50:39.830Z,54.07
2023-01-12T21:53:08.255Z,53.96
2023-01-12T21:55:35.682Z,54.02
2023-01-12T21:58:03.346Z,54.25
2023-01-12T22:00:31.025Z,53.97
2023-01-12T22:02:58.706Z,53.93
2023-01-12T22:05:26.412Z,53.99
2023-01-12T22:07:55.297Z,54.05
2023-01-12T22:10:30.265Z,54.07
2023-01-12T22:13:01.499Z,54.05
2023-01-12T22:15:30.402Z,54.03
2023-01-12T22:17:58.374Z,54.04
2023-01-12T22:20:27.817Z,53.96
2023-01-12T22:22:55.885Z,54.09
2023-01-12T22:25:23.315Z,53.91
2023-01-12T22:27:51.302Z,54.05
2023-01-12T22:30:24.220Z,54.20
2023-01-12T22:32:54.652Z,54.39
2023-01-12T22:35:22.750Z,53.90
2023-01-12T22:37:50.517Z,54.15
2023-01-12T22:40:18.631Z,53.65
2023-01-12T22:43:04.986Z,54.11
2023-01-12T22:45:34.388Z,53.91
2023-01-12T22:48:02.627Z,54.00
2023-01-12T22:50:30.208Z,53.94
2023-01-12T22:52:58.360Z,54.09
2023-01-12T22:55:25.779Z,54.04
2023-01-12T22:57:53.526Z,53.96
2023-01-12T23:00:21.407Z,54.09
2023-01-12T23:03:01.526Z,53.84
2023-01-12T23:05:33.116Z,53.78
2023-01-12T23:08:00.959Z,53.72
2023-01-12T23:10:28.978Z,53.96
2023-01-12T23:13:15.707Z,53.85
2023-01-12T23:15:54.029Z,54.14
2023-01-12T23:18:28.066Z,54.00
2023-01-12T23:21:14.141Z,53.73
2023-01-12T23:23:48.022Z,53.86
2023-01-12T23:26:19.990Z,54.11
2023-01-12T23:28:50.777Z,53.81
2023-01-12T23:31:21.703Z,53.73
2023-01-12T23:33:50.601Z,53.77
2023-01-12T23:36:21.139Z,53.78
2023-01-12T23:38:53.338Z,54.04
2023-01-12T23:41:24.596Z,53.63
2023-01-12T23:43:56.549Z,53.78
2023-01-12T23:46:24.446Z,53.69
2023-01-12T23:48:54.574Z,53.80
2023-01-12T23:51:22.961Z,53.66
2023-01-12T23:53:54.840Z,53.56
2023-01-12T23:56:23.580Z,53.71
2023-01-12T23:58:52.053Z,53.69
